sensor_id;sensor_type;location;lat;lon;timestamp;P1;durP1;ratioP1;P2;durP2;ratioP2
12359;SDS011;6244;51.460;7.090;2023-03-03T00:01:02;65.00;;;30.83;;
12359;SDS011;6244;51.460;7.090;2023-03-03T00:06:00;68.35;;;31.77;;
12359;SDS011;6244;51.460;7.090;2023-03-03T00:10:59;62.90;;;30.23;;
12359;SDS011;6244;51.460;7.090;2023-03-03T00:16:04;63.42;;;28.98;;
12359;SDS011;6244;51.460;7.090;2023-03-03T00:21:14;58.35;;;28.25;;
12359;SDS011;6244;51.460;7.090;2023-03-03T00:26:20;58.90;;;27.52;;
12359;SDS011;6244;51.460;7.090;2023-03-03T00:31:18;55.60;;;27.25;;
12359;SDS011;6244;51.460;7.090;2023-03-03T00:36:21;63.33;;;28.48;;
12359;SDS011;6244;51.460;7.090;2023-03-03T00:41:27;75.03;;;32.63;;
12359;SDS011;6244;51.460;7.090;2023-03-03T00:46:23;63.10;;;30.85;;
12359;SDS011;6244;51.460;7.090;2023-03-03T00:51:24;63.35;;;29.58;;
12359;SDS011;6244;51.460;7.090;2023-03-03T00:56:23;55.40;;;27.23;;
12359;SDS011;6244;51.460;7.090;2023-03-03T01:01:21;63.28;;;27.67;;
12359;SDS011;6244;51.460;7.090;2023-03-03T01:06:19;53.28;;;26.02;;
12359;SDS011;6244;51.460;7.090;2023-03-03T01:11:16;53.15;;;25.15;;
12359;SDS011;6244;51.460;7.090;2023-03-03T01:16:16;54.13;;;26.42;;
12359;SDS011;6244;51.460;7.090;2023-03-03T01:21:15;56.17;;;25.27;;
12359;SDS011;6244;51.460;7.090;2023-03-03T01:26:11;55.38;;;24.52;;
12359;SDS011;6244;51.460;7.090;2023-03-03T01:31:08;58.85;;;26.65;;
12359;SDS011;6244;51.460;7.090;2023-03-03T01:36:05;58.50;;;28.38;;
12359;SDS011;6244;51.460;7.090;2023-03-03T01:41:05;65.20;;;29.02;;
12359;SDS011;6244;51.460;7.090;2023-03-03T01:51:26;68.00;;;28.25;;
12359;SDS011;6244;51.460;7.090;2023-03-03T01:56:27;71.30;;;30.25;;
12359;SDS011;6244;51.460;7.090;2023-03-03T02:01:25;62.35;;;27.58;;
12359;SDS011;6244;51.460;7.090;2023-03-03T02:06:24;58.33;;;27.63;;
12359;SDS011;6244;51.460;7.090;2023-03-03T02:11:23;48.08;;;24.00;;
12359;SDS011;6244;51.460;7.090;2023-03-03T02:16:24;45.25;;;22.17;;
12359;SDS011;6244;51.460;7.090;2023-03-03T02:21:22;37.70;;;19.48;;
12359;SDS011;6244;51.460;7.090;2023-03-03T02:26:23;40.45;;;20.45;;
12359;SDS011;6244;51.460;7.090;2023-03-03T02:31:23;44.15;;;20.83;;
12359;SDS011;6244;51.460;7.090;2023-03-03T02:36:23;40.67;;;21.35;;
12359;SDS011;6244;51.460;7.090;2023-03-03T02:41:27;48.10;;;22.65;;
12359;SDS011;6244;51.460;7.090;2023-03-03T02:46:28;47.58;;;21.98;;
12359;SDS011;6244;51.460;7.090;2023-03-03T02:51:28;45.72;;;20.77;;
12359;SDS011;6244;51.460;7.090;2023-03-03T02:56:26;51.17;;;20.88;;
12359;SDS011;6244;51.460;7.090;2023-03-03T03:01:23;48.10;;;21.92;;
12359;SDS011;6244;51.460;7.090;2023-03-03T03:06:20;42.00;;;20.50;;
12359;SDS011;6244;51.460;7.090;2023-03-03T03:11:16;42.30;;;19.27;;
12359;SDS011;6244;51.460;7.090;2023-03-03T03:16:14;47.38;;;21.25;;
12359;SDS011;6244;51.460;7.090;2023-03-03T03:21:11;43.00;;;20.98;;
12359;SDS011;6244;51.460;7.090;2023-03-03T03:26:09;52.65;;;22.55;;
12359;SDS011;6244;51.460;7.090;2023-03-03T03:31:06;40.25;;;19.45;;
12359;SDS011;6244;51.460;7.090;2023-03-03T03:36:06;43.33;;;20.15;;
12359;SDS011;6244;51.460;7.090;2023-03-03T03:41:03;41.95;;;21.08;;
12359;SDS011;6244;51.460;7.090;2023-03-03T03:46:01;48.15;;;20.58;;
12359;SDS011;6244;51.460;7.090;2023-03-03T03:50:58;40.55;;;19.67;;
12359;SDS011;6244;51.460;7.090;2023-03-03T03:55:55;35.83;;;16.88;;
12359;SDS011;6244;51.460;7.090;2023-03-03T04:00:52;43.22;;;19.98;;
12359;SDS011;6244;51.460;7.090;2023-03-03T04:05:51;43.03;;;20.05;;
12359;SDS011;6244;51.460;7.090;2023-03-03T04:10:48;34.85;;;17.73;;
12359;SDS011;6244;51.460;7.090;2023-03-03T04:15:45;35.35;;;17.30;;
12359;SDS011;6244;51.460;7.090;2023-03-03T04:20:42;38.78;;;17.35;;
12359;SDS011;6244;51.460;7.090;2023-03-03T04:25:38;32.67;;;16.38;;
12359;SDS011;6244;51.460;7.090;2023-03-03T04:30:35;44.05;;;20.02;;
12359;SDS011;6244;51.460;7.090;2023-03-03T04:35:33;37.33;;;18.08;;
12359;SDS011;6244;51.460;7.090;2023-03-03T04:40:30;33.88;;;15.80;;
12359;SDS011;6244;51.460;7.090;2023-03-03T04:45:26;30.30;;;14.38;;
12359;SDS011;6244;51.460;7.090;2023-03-03T04:50:23;32.50;;;15.57;;
12359;SDS011;6244;51.460;7.090;2023-03-03T04:55:21;28.88;;;13.60;;
12359;SDS011;6244;51.460;7.090;2023-03-03T05:00:17;31.55;;;15.10;;
12359;SDS011;6244;51.460;7.090;2023-03-03T05:05:14;28.13;;;16.10;;
12359;SDS011;6244;51.460;7.090;2023-03-03T05:10:11;33.95;;;17.30;;
12359;SDS011;6244;51.460;7.090;2023-03-03T05:15:09;24.73;;;13.70;;
12359;SDS011;6244;51.460;7.090;2023-03-03T05:20:08;27.45;;;14.90;;
12359;SDS011;6244;51.460;7.090;2023-03-03T05:25:06;32.28;;;16.30;;
12359;SDS011;6244;51.460;7.090;2023-03-03T05:30:05;31.92;;;16.00;;
12359;SDS011;6244;51.460;7.090;2023-03-03T05:35:04;33.17;;;15.52;;
12359;SDS011;6244;51.460;7.090;2023-03-03T05:40:02;29.88;;;16.23;;
12359;SDS011;6244;51.460;7.090;2023-03-03T05:44:59;29.98;;;14.50;;
12359;SDS011;6244;51.460;7.090;2023-03-03T05:49:56;31.52;;;15.52;;
12359;SDS011;6244;51.460;7.090;2023-03-03T05:54:54;33.92;;;16.38;;
12359;SDS011;6244;51.460;7.090;2023-03-03T05:59:50;36.05;;;18.90;;
12359;SDS011;6244;51.460;7.090;2023-03-03T06:04:47;29.00;;;15.35;;
12359;SDS011;6244;51.460;7.090;2023-03-03T06:09:43;33.67;;;16.58;;
12359;SDS011;6244;51.460;7.090;2023-03-03T06:14:41;30.80;;;16.80;;
12359;SDS011;6244;51.460;7.090;2023-03-03T06:19:37;35.03;;;16.98;;
12359;SDS011;6244;51.460;7.090;2023-03-03T06:24:35;39.22;;;16.40;;
12359;SDS011;6244;51.460;7.090;2023-03-03T06:29:32;31.70;;;15.35;;
12359;SDS011;6244;51.460;7.090;2023-03-03T06:34:30;39.58;;;16.55;;
12359;SDS011;6244;51.460;7.090;2023-03-03T06:39:27;36.30;;;16.40;;
12359;SDS011;6244;51.460;7.090;2023-03-03T06:44:24;38.78;;;16.58;;
12359;SDS011;6244;51.460;7.090;2023-03-03T06:49:20;32.78;;;14.77;;
12359;SDS011;6244;51.460;7.090;2023-03-03T06:54:19;30.15;;;15.02;;
12359;SDS011;6244;51.460;7.090;2023-03-03T06:59:17;33.33;;;16.30;;
12359;SDS011;6244;51.460;7.090;2023-03-03T07:04:16;32.90;;;14.77;;
12359;SDS011;6244;51.460;7.090;2023-03-03T07:09:24;34.70;;;17.15;;
12359;SDS011;6244;51.460;7.090;2023-03-03T07:14:22;44.03;;;20.38;;
12359;SDS011;6244;51.460;7.090;2023-03-03T07:19:22;39.30;;;18.13;;
12359;SDS011;6244;51.460;7.090;2023-03-03T07:24:27;39.20;;;17.85;;
12359;SDS011;6244;51.460;7.090;2023-03-03T07:29:26;43.33;;;17.48;;
12359;SDS011;6244;51.460;7.090;2023-03-03T07:34:26;36.47;;;17.27;;
12359;SDS011;6244;51.460;7.090;2023-03-03T07:39:34;44.70;;;19.35;;
12359;SDS011;6244;51.460;7.090;2023-03-03T07:44:33;42.35;;;20.40;;
12359;SDS011;6244;51.460;7.090;2023-03-03T07:49:32;46.70;;;20.63;;
12359;SDS011;6244;51.460;7.090;2023-03-03T07:54:32;46.10;;;19.90;;
12359;SDS011;6244;51.460;7.090;2023-03-03T08:04:34;46.30;;;20.40;;
12359;SDS011;6244;51.460;7.090;2023-03-03T08:09:43;55.10;;;23.55;;
12359;SDS011;6244;51.460;7.090;2023-03-03T08:14:43;41.03;;;18.90;;
12359;SDS011;6244;51.460;7.090;2023-03-03T08:19:39;41.17;;;18.23;;
12359;SDS011;6244;51.460;7.090;2023-03-03T08:24:36;46.35;;;19.50;;
12359;SDS011;6244;51.460;7.090;2023-03-03T08:29:33;39.92;;;19.90;;
12359;SDS011;6244;51.460;7.090;2023-03-03T08:34:30;45.13;;;19.15;;
12359;SDS011;6244;51.460;7.090;2023-03-03T08:39:26;39.67;;;18.02;;
12359;SDS011;6244;51.460;7.090;2023-03-03T08:44:23;37.78;;;17.55;;
12359;SDS011;6244;51.460;7.090;2023-03-03T08:49:21;34.53;;;15.93;;
12359;SDS011;6244;51.460;7.090;2023-03-03T08:54:17;39.70;;;17.27;;
12359;SDS011;6244;51.460;7.090;2023-03-03T08:59:14;42.35;;;19.10;;
12359;SDS011;6244;51.460;7.090;2023-03-03T09:04:10;38.22;;;16.30;;
12359;SDS011;6244;51.460;7.090;2023-03-03T09:09:08;39.63;;;16.40;;
12359;SDS011;6244;51.460;7.090;2023-03-03T09:14:06;38.60;;;16.13;;
12359;SDS011;6244;51.460;7.090;2023-03-03T09:19:14;34.60;;;16.90;;
12359;SDS011;6244;51.460;7.090;2023-03-03T09:24:21;35.83;;;17.02;;
12359;SDS011;6244;51.460;7.090;2023-03-03T09:29:23;37.60;;;18.63;;
12359;SDS011;6244;51.460;7.090;2023-03-03T09:34:22;41.60;;;17.92;;
12359;SDS011;6244;51.460;7.090;2023-03-03T09:39:24;34.42;;;16.50;;
12359;SDS011;6244;51.460;7.090;2023-03-03T09:44:25;35.80;;;15.63;;
12359;SDS011;6244;51.460;7.090;2023-03-03T09:49:56;39.00;;;16.23;;
12359;SDS011;6244;51.460;7.090;2023-03-03T09:55:07;36.80;;;17.17;;
12359;SDS011;6244;51.460;7.090;2023-03-03T10:00:26;39.35;;;17.58;;
12359;SDS011;6244;51.460;7.090;2023-03-03T10:05:33;38.40;;;18.67;;
12359;SDS011;6244;51.460;7.090;2023-03-03T10:10:47;38.13;;;16.75;;
12359;SDS011;6244;51.460;7.090;2023-03-03T10:16:09;31.30;;;16.23;;
12359;SDS011;6244;51.460;7.090;2023-03-03T10:21:18;33.75;;;15.65;;
12359;SDS011;6244;51.460;7.090;2023-03-03T10:26:22;34.70;;;15.00;;
12359;SDS011;6244;51.460;7.090;2023-03-03T10:31:44;39.75;;;19.25;;
12359;SDS011;6244;51.460;7.090;2023-03-03T10:36:52;42.85;;;18.40;;
12359;SDS011;6244;51.460;7.090;2023-03-03T10:42:00;36.47;;;16.98;;
12359;SDS011;6244;51.460;7.090;2023-03-03T10:52:40;38.15;;;17.38;;
12359;SDS011;6244;51.460;7.090;2023-03-03T10:57:44;33.63;;;15.80;;
12359;SDS011;6244;51.460;7.090;2023-03-03T11:02:52;30.95;;;15.13;;
12359;SDS011;6244;51.460;7.090;2023-03-03T11:08:05;37.22;;;15.98;;
12359;SDS011;6244;51.460;7.090;2023-03-03T11:13:10;33.88;;;16.27;;
12359;SDS011;6244;51.460;7.090;2023-03-03T11:18:14;37.90;;;15.93;;
12359;SDS011;6244;51.460;7.090;2023-03-03T11:23:23;37.22;;;15.20;;
12359;SDS011;6244;51.460;7.090;2023-03-03T11:28:40;34.22;;;16.70;;
12359;SDS011;6244;51.460;7.090;2023-03-03T11:33:51;40.58;;;15.95;;
12359;SDS011;6244;51.460;7.090;2023-03-03T11:38:56;39.17;;;17.40;;
12359;SDS011;6244;51.460;7.090;2023-03-03T11:43:57;43.30;;;19.55;;
12359;SDS011;6244;51.460;7.090;2023-03-03T11:53:58;38.17;;;17.35;;
12359;SDS011;6244;51.460;7.090;2023-03-03T11:59:04;38.47;;;16.55;;
12359;SDS011;6244;51.460;7.090;2023-03-03T12:04:14;35.28;;;14.43;;
12359;SDS011;6244;51.460;7.090;2023-03-03T12:09:20;36.30;;;16.40;;
12359;SDS011;6244;51.460;7.090;2023-03-03T12:14:30;33.25;;;14.77;;
12359;SDS011;6244;51.460;7.090;2023-03-03T12:19:40;36.25;;;16.20;;
12359;SDS011;6244;51.460;7.090;2023-03-03T12:24:50;32.35;;;17.15;;
12359;SDS011;6244;51.460;7.090;2023-03-03T12:30:02;36.40;;;17.58;;
12359;SDS011;6244;51.460;7.090;2023-03-03T12:35:08;35.88;;;15.48;;
12359;SDS011;6244;51.460;7.090;2023-03-03T12:40:12;34.15;;;15.70;;
12359;SDS011;6244;51.460;7.090;2023-03-03T12:45:20;33.73;;;15.23;;
12359;SDS011;6244;51.460;7.090;2023-03-03T12:50:30;38.13;;;16.27;;
12359;SDS011;6244;51.460;7.090;2023-03-03T12:55:34;38.15;;;16.90;;
12359;SDS011;6244;51.460;7.090;2023-03-03T13:00:45;38.28;;;17.67;;
12359;SDS011;6244;51.460;7.090;2023-03-03T13:05:50;40.67;;;18.08;;
12359;SDS011;6244;51.460;7.090;2023-03-03T13:10:57;35.72;;;16.85;;
12359;SDS011;6244;51.460;7.090;2023-03-03T13:16:04;35.58;;;18.02;;
12359;SDS011;6244;51.460;7.090;2023-03-03T13:21:05;33.80;;;16.80;;
12359;SDS011;6244;51.460;7.090;2023-03-03T13:26:10;32.70;;;15.95;;
12359;SDS011;6244;51.460;7.090;2023-03-03T13:31:15;36.33;;;17.13;;
12359;SDS011;6244;51.460;7.090;2023-03-03T13:36:16;33.67;;;17.67;;
12359;SDS011;6244;51.460;7.090;2023-03-03T13:41:15;32.63;;;16.67;;
12359;SDS011;6244;51.460;7.090;2023-03-03T13:46:22;32.72;;;17.05;;
12359;SDS011;6244;51.460;7.090;2023-03-03T13:51:31;31.17;;;15.85;;
12359;SDS011;6244;51.460;7.090;2023-03-03T13:56:43;40.92;;;15.95;;
12359;SDS011;6244;51.460;7.090;2023-03-03T14:02:00;30.80;;;15.20;;
12359;SDS011;6244;51.460;7.090;2023-03-03T14:07:06;31.75;;;16.80;;
12359;SDS011;6244;51.460;7.090;2023-03-03T14:12:10;27.35;;;15.48;;
12359;SDS011;6244;51.460;7.090;2023-03-03T14:17:16;34.40;;;16.67;;
12359;SDS011;6244;51.460;7.090;2023-03-03T14:22:23;35.30;;;16.20;;
12359;SDS011;6244;51.460;7.090;2023-03-03T14:27:27;31.70;;;17.38;;
12359;SDS011;6244;51.460;7.090;2023-03-03T14:32:31;32.58;;;15.30;;
12359;SDS011;6244;51.460;7.090;2023-03-03T14:37:29;31.23;;;16.80;;
12359;SDS011;6244;51.460;7.090;2023-03-03T14:42:39;30.70;;;15.88;;
12359;SDS011;6244;51.460;7.090;2023-03-03T14:47:44;32.65;;;15.40;;
12359;SDS011;6244;51.460;7.090;2023-03-03T14:52:41;26.02;;;14.52;;
12359;SDS011;6244;51.460;7.090;2023-03-03T14:57:39;27.83;;;12.90;;
12359;SDS011;6244;51.460;7.090;2023-03-03T15:02:41;27.90;;;14.13;;
12359;SDS011;6244;51.460;7.090;2023-03-03T15:07:40;28.20;;;14.95;;
12359;SDS011;6244;51.460;7.090;2023-03-03T15:12:38;27.38;;;14.43;;
12359;SDS011;6244;51.460;7.090;2023-03-03T15:17:36;24.20;;;12.82;;
12359;SDS011;6244;51.460;7.090;2023-03-03T15:28:00;23.42;;;12.88;;
12359;SDS011;6244;51.460;7.090;2023-03-03T15:33:09;23.40;;;11.75;;
12359;SDS011;6244;51.460;7.090;2023-03-03T15:38:19;24.40;;;11.90;;
12359;SDS011;6244;51.460;7.090;2023-03-03T15:43:27;24.25;;;12.57;;
12359;SDS011;6244;51.460;7.090;2023-03-03T15:48:44;24.55;;;11.82;;
12359;SDS011;6244;51.460;7.090;2023-03-03T15:53:55;20.40;;;10.93;;
12359;SDS011;6244;51.460;7.090;2023-03-03T15:59:20;22.75;;;11.60;;
12359;SDS011;6244;51.460;7.090;2023-03-03T16:04:27;26.52;;;12.50;;
12359;SDS011;6244;51.460;7.090;2023-03-03T16:09:31;22.98;;;12.20;;
12359;SDS011;6244;51.460;7.090;2023-03-03T16:14:50;25.15;;;12.10;;
12359;SDS011;6244;51.460;7.090;2023-03-03T16:19:58;20.48;;;11.32;;
12359;SDS011;6244;51.460;7.090;2023-03-03T16:25:12;25.55;;;11.90;;
12359;SDS011;6244;51.460;7.090;2023-03-03T16:30:27;22.52;;;11.70;;
12359;SDS011;6244;51.460;7.090;2023-03-03T16:35:28;20.52;;;11.63;;
12359;SDS011;6244;51.460;7.090;2023-03-03T16:40:31;23.88;;;11.85;;
12359;SDS011;6244;51.460;7.090;2023-03-03T16:45:33;24.45;;;11.63;;
12359;SDS011;6244;51.460;7.090;2023-03-03T16:50:37;23.80;;;12.32;;
12359;SDS011;6244;51.460;7.090;2023-03-03T16:55:43;24.42;;;11.35;;
12359;SDS011;6244;51.460;7.090;2023-03-03T17:00:48;21.33;;;11.38;;
12359;SDS011;6244;51.460;7.090;2023-03-03T17:05:50;25.73;;;12.88;;
12359;SDS011;6244;51.460;7.090;2023-03-03T17:10:54;26.60;;;13.40;;
12359;SDS011;6244;51.460;7.090;2023-03-03T17:16:01;25.30;;;13.38;;
12359;SDS011;6244;51.460;7.090;2023-03-03T17:21:07;24.70;;;11.85;;
12359;SDS011;6244;51.460;7.090;2023-03-03T17:26:17;28.50;;;13.38;;
12359;SDS011;6244;51.460;7.090;2023-03-03T17:31:26;27.60;;;13.27;;
12359;SDS011;6244;51.460;7.090;2023-03-03T17:36:33;23.80;;;14.15;;
12359;SDS011;6244;51.460;7.090;2023-03-03T17:41:43;27.52;;;13.18;;
12359;SDS011;6244;51.460;7.090;2023-03-03T17:46:48;27.73;;;14.88;;
12359;SDS011;6244;51.460;7.090;2023-03-03T17:51:58;27.90;;;13.73;;
12359;SDS011;6244;51.460;7.090;2023-03-03T17:57:09;29.55;;;14.48;;
12359;SDS011;6244;51.460;7.090;2023-03-03T18:02:27;27.08;;;15.23;;
12359;SDS011;6244;51.460;7.090;2023-03-03T18:07:40;28.38;;;15.07;;
12359;SDS011;6244;51.460;7.090;2023-03-03T18:12:48;30.63;;;14.82;;
12359;SDS011;6244;51.460;7.090;2023-03-03T18:17:59;37.58;;;17.80;;
12359;SDS011;6244;51.460;7.090;2023-03-03T18:22:58;37.65;;;19.30;;
12359;SDS011;6244;51.460;7.090;2023-03-03T18:28:20;43.78;;;20.63;;
12359;SDS011;6244;51.460;7.090;2023-03-03T18:33:30;41.53;;;20.40;;
12359;SDS011;6244;51.460;7.090;2023-03-03T18:38:32;40.88;;;18.27;;
12359;SDS011;6244;51.460;7.090;2023-03-03T18:43:46;44.10;;;18.27;;
12359;SDS011;6244;51.460;7.090;2023-03-03T18:48:52;41.50;;;20.73;;
12359;SDS011;6244;51.460;7.090;2023-03-03T18:53:58;35.40;;;19.42;;
12359;SDS011;6244;51.460;7.090;2023-03-03T18:58:57;37.85;;;19.67;;
12359;SDS011;6244;51.460;7.090;2023-03-03T19:03:55;42.60;;;18.77;;
12359;SDS011;6244;51.460;7.090;2023-03-03T19:08:59;35.85;;;18.38;;
12359;SDS011;6244;51.460;7.090;2023-03-03T19:19:19;41.25;;;20.02;;
12359;SDS011;6244;51.460;7.090;2023-03-03T19:24:25;44.35;;;21.10;;
12359;SDS011;6244;51.460;7.090;2023-03-03T19:34:58;40.95;;;21.88;;
12359;SDS011;6244;51.460;7.090;2023-03-03T19:40:07;41.03;;;20.67;;
12359;SDS011;6244;51.460;7.090;2023-03-03T19:45:19;41.70;;;20.83;;
12359;SDS011;6244;51.460;7.090;2023-03-03T19:50:28;38.97;;;19.48;;
12359;SDS011;6244;51.460;7.090;2023-03-03T19:55:33;38.83;;;18.92;;
12359;SDS011;6244;51.460;7.090;2023-03-03T20:00:44;40.40;;;20.88;;
12359;SDS011;6244;51.460;7.090;2023-03-03T20:05:44;45.47;;;21.13;;
12359;SDS011;6244;51.460;7.090;2023-03-03T20:10:46;42.20;;;19.40;;
12359;SDS011;6244;51.460;7.090;2023-03-03T20:15:50;34.08;;;18.02;;
12359;SDS011;6244;51.460;7.090;2023-03-03T20:20:55;38.00;;;20.70;;
12359;SDS011;6244;51.460;7.090;2023-03-03T20:26:04;38.00;;;19.65;;
12359;SDS011;6244;51.460;7.090;2023-03-03T20:31:08;35.97;;;19.77;;
12359;SDS011;6244;51.460;7.090;2023-03-03T20:36:17;39.45;;;20.63;;
12359;SDS011;6244;51.460;7.090;2023-03-03T20:41:23;44.60;;;22.83;;
12359;SDS011;6244;51.460;7.090;2023-03-03T20:46:31;39.25;;;18.33;;
12359;SDS011;6244;51.460;7.090;2023-03-03T20:51:39;41.83;;;21.10;;
12359;SDS011;6244;51.460;7.090;2023-03-03T20:56:41;43.08;;;21.58;;
12359;SDS011;6244;51.460;7.090;2023-03-03T21:01:44;38.10;;;20.45;;
12359;SDS011;6244;51.460;7.090;2023-03-03T21:06:49;41.78;;;22.75;;
12359;SDS011;6244;51.460;7.090;2023-03-03T21:11:46;38.58;;;21.83;;
12359;SDS011;6244;51.460;7.090;2023-03-03T21:16:43;36.35;;;18.38;;
12359;SDS011;6244;51.460;7.090;2023-03-03T21:21:40;38.03;;;20.73;;
12359;SDS011;6244;51.460;7.090;2023-03-03T21:26:44;40.35;;;21.52;;
12359;SDS011;6244;51.460;7.090;2023-03-03T21:31:42;30.67;;;18.88;;
12359;SDS011;6244;51.460;7.090;2023-03-03T21:36:43;21.85;;;12.73;;
12359;SDS011;6244;51.460;7.090;2023-03-03T21:41:51;15.82;;;9.35;;
12359;SDS011;6244;51.460;7.090;2023-03-03T21:46:50;15.95;;;9.50;;
12359;SDS011;6244;51.460;7.090;2023-03-03T21:51:46;12.30;;;7.53;;
12359;SDS011;6244;51.460;7.090;2023-03-03T21:56:43;11.13;;;7.63;;
12359;SDS011;6244;51.460;7.090;2023-03-03T22:01:43;15.27;;;7.60;;
12359;SDS011;6244;51.460;7.090;2023-03-03T22:06:40;12.23;;;7.88;;
12359;SDS011;6244;51.460;7.090;2023-03-03T22:11:36;9.35;;;6.57;;
12359;SDS011;6244;51.460;7.090;2023-03-03T22:16:33;9.38;;;6.53;;
12359;SDS011;6244;51.460;7.090;2023-03-03T22:21:31;12.43;;;7.25;;
12359;SDS011;6244;51.460;7.090;2023-03-03T22:26:28;10.25;;;7.13;;
12359;SDS011;6244;51.460;7.090;2023-03-03T22:31:24;12.00;;;6.82;;
12359;SDS011;6244;51.460;7.090;2023-03-03T22:36:21;10.20;;;6.32;;
12359;SDS011;6244;51.460;7.090;2023-03-03T22:41:19;10.90;;;6.10;;
12359;SDS011;6244;51.460;7.090;2023-03-03T22:46:15;12.88;;;6.38;;
12359;SDS011;6244;51.460;7.090;2023-03-03T22:51:12;12.65;;;6.60;;
12359;SDS011;6244;51.460;7.090;2023-03-03T22:56:08;9.18;;;6.50;;
12359;SDS011;6244;51.460;7.090;2023-03-03T23:01:06;16.02;;;7.10;;
12359;SDS011;6244;51.460;7.090;2023-03-03T23:06:03;11.20;;;7.60;;
12359;SDS011;6244;51.460;7.090;2023-03-03T23:11:00;15.07;;;6.57;;
12359;SDS011;6244;51.460;7.090;2023-03-03T23:15:57;9.82;;;6.45;;
12359;SDS011;6244;51.460;7.090;2023-03-03T23:20:55;12.48;;;6.13;;
12359;SDS011;6244;51.460;7.090;2023-03-03T23:25:52;12.88;;;6.45;;
12359;SDS011;6244;51.460;7.090;2023-03-03T23:30:48;15.45;;;6.53;;
12359;SDS011;6244;51.460;7.090;2023-03-03T23:35:45;10.25;;;5.95;;
12359;SDS011;6244;51.460;7.090;2023-03-03T23:40:45;10.63;;;6.60;;
12359;SDS011;6244;51.460;7.090;2023-03-03T23:45:43;16.85;;;6.35;;
12359;SDS011;6244;51.460;7.090;2023-03-03T23:50:40;11.57;;;6.05;;
12359;SDS011;6244;51.460;7.090;2023-03-03T23:55:36;9.10;;;4.82;;
